createdAt,value
2023-12-09T00:00:27.091Z,94716.00
2023-12-09T00:01:27.144Z,94715.00
2023-12-09T00:02:27.550Z,94717.00
2023-12-09T00:03:27.320Z,94717.00
2023-12-09T00:04:27.383Z,94720.00
2023-12-09T00:05:27.320Z,94716.00
2023-12-09T00:06:27.450Z,94717.00
2023-12-09T00:07:27.432Z,94719.00
2023-12-09T00:08:27.523Z,94720.00
2023-12-09T00:09:27.738Z,94721.00
2023-12-09T00:10:27.619Z,94724.00
2023-12-09T00:11:27.619Z,94724.00
2023-12-09T00:12:27.953Z,94722.00
2023-12-09T00:13:27.717Z,94723.00
2023-12-09T00:14:27.742Z,94722.00
2023-12-09T00:15:27.873Z,94724.00
2023-12-09T00:16:27.845Z,94722.00
2023-12-09T00:17:27.884Z,94723.00
2023-12-09T00:18:28.094Z,94722.00
2023-12-09T00:19:28.138Z,94724.00
2023-12-09T00:20:28.055Z,94721.00
2023-12-09T00:21:28.179Z,94724.00
2023-12-09T00:22:28.404Z,94722.00
2023-12-09T00:23:28.180Z,94724.00
2023-12-09T00:24:28.371Z,94723.00
2023-12-09T00:25:28.312Z,94726.00
2023-12-09T00:26:28.346Z,94725.00
2023-12-09T00:27:28.443Z,94727.00
2023-12-09T00:28:28.437Z,94730.00
2023-12-09T00:29:28.497Z,94730.00
2023-12-09T00:30:28.593Z,94732.00
2023-12-09T00:32:14.332Z,94736.00
2023-12-09T00:33:14.316Z,94734.00
2023-12-09T00:34:14.297Z,94735.00
2023-12-09T00:35:14.258Z,94735.00
2023-12-09T00:36:14.256Z,94735.00
2023-12-09T00:37:14.248Z,94734.00
2023-12-09T00:38:14.248Z,94735.00
2023-12-09T00:39:14.307Z,94735.00
2023-12-09T00:40:14.295Z,94735.00
2023-12-09T00:41:14.254Z,94736.00
2023-12-09T00:42:14.277Z,94738.00
2023-12-09T00:43:14.251Z,94735.00
2023-12-09T00:44:14.245Z,94734.00
2023-12-09T00:45:14.245Z,94735.00
2023-12-09T00:46:14.264Z,94735.00
2023-12-09T00:47:14.264Z,94733.00
2023-12-09T00:48:14.329Z,94734.00
2023-12-09T00:49:14.274Z,94734.00
2023-12-09T00:50:14.258Z,94733.00
2023-12-09T00:51:14.308Z,94732.00
2023-12-09T00:52:14.272Z,94731.00
2023-12-09T00:53:14.249Z,94733.00
2023-12-09T00:54:14.367Z,94732.00
2023-12-09T00:55:14.299Z,94733.00
2023-12-09T00:56:14.286Z,94734.00
2023-12-09T00:57:14.340Z,94736.00
2023-12-09T00:58:14.260Z,94737.00
2023-12-09T00:59:14.285Z,94739.00
2023-12-09T01:00:14.313Z,94737.00
2023-12-09T01:01:14.319Z,94739.00
2023-12-09T01:02:14.261Z,94737.00
2023-12-09T01:03:14.344Z,94737.00
2023-12-09T01:04:14.470Z,94735.00
2023-12-09T01:05:14.383Z,94735.00
2023-12-09T01:06:14.440Z,94735.00
2023-12-09T01:07:14.446Z,94738.00
2023-12-09T01:08:14.483Z,94738.00
2023-12-09T01:09:14.542Z,94740.00
2023-12-09T01:10:14.562Z,94740.00
2023-12-09T01:11:14.591Z,94741.00
2023-12-09T01:12:14.765Z,94744.00
2023-12-09T01:13:14.681Z,94745.00
2023-12-09T01:14:14.752Z,94747.00
2023-12-09T01:15:14.836Z,94747.00
2023-12-09T01:16:14.969Z,94746.00
2023-12-09T01:17:14.998Z,94746.00
2023-12-09T01:18:15.142Z,94750.00
2023-12-09T01:19:15.017Z,94747.00
2023-12-09T01:20:14.979Z,94750.00
2023-12-09T01:21:15.096Z,94752.00
2023-12-09T01:22:15.078Z,94751.00
2023-12-09T01:23:15.112Z,94753.00
2023-12-09T01:24:15.203Z,94754.00
2023-12-09T01:25:15.171Z,94751.00
2023-12-09T01:26:15.218Z,94752.00
2023-12-09T01:27:15.341Z,94755.00
2023-12-09T01:28:15.296Z,94752.00
2023-12-09T01:29:15.327Z,94754.00
2023-12-09T01:30:15.405Z,94756.00
2023-12-09T01:31:15.386Z,94759.00
2023-12-09T01:32:15.435Z,94760.00
2023-12-09T01:33:15.589Z,94761.00
2023-12-09T01:34:15.728Z,94762.00
2023-12-09T01:35:15.551Z,94760.00
2023-12-09T01:36:15.643Z,94759.00
2023-12-09T01:37:15.633Z,94754.00
2023-12-09T01:38:15.726Z,94754.00
2023-12-09T01:39:15.711Z,94757.00
2023-12-09T01:40:15.782Z,94758.00
2023-12-09T01:41:15.760Z,94758.00
2023-12-09T01:42:15.846Z,94758.00
2023-12-09T01:43:15.877Z,94759.00
2023-12-09T01:44:15.891Z,94756.00
2023-12-09T01:45:15.956Z,94759.00
2023-12-09T01:46:15.965Z,94757.00
2023-12-09T01:47:16.007Z,94759.00
2023-12-09T01:48:16.182Z,94759.00
2023-12-09T01:49:16.245Z,94760.00
2023-12-09T01:50:16.192Z,94759.00
2023-12-09T01:51:16.164Z,94760.00
2023-12-09T01:52:16.204Z,94756.00
2023-12-09T01:53:16.242Z,94760.00
2023-12-09T01:54:16.305Z,94760.00
2023-12-09T01:55:16.316Z,94761.00
2023-12-09T01:56:16.378Z,94758.00
2023-12-09T01:57:16.448Z,94762.00
2023-12-09T01:58:16.400Z,94761.00
2023-12-09T01:59:16.428Z,94764.00
2023-12-09T02:00:17.070Z,94761.00
2023-12-09T02:01:16.537Z,94762.00
2023-12-09T02:02:16.581Z,94762.00
2023-12-09T02:03:16.669Z,94765.00
2023-12-09T02:04:16.649Z,94767.00
2023-12-09T02:05:16.801Z,94769.00
2023-12-09T02:06:16.705Z,94767.00
2023-12-09T02:07:16.746Z,94768.00
2023-12-09T02:08:16.754Z,94766.00
2023-12-09T02:09:16.796Z,94767.00
2023-12-09T02:10:16.825Z,94766.00
2023-12-09T02:11:16.888Z,94766.00
2023-12-09T02:12:16.899Z,94765.00
2023-12-09T02:13:16.932Z,94768.00
2023-12-09T02:14:16.981Z,94766.00
2023-12-09T02:15:17.002Z,94766.00
2023-12-09T02:16:16.998Z,94761.00
2023-12-09T02:17:17.123Z,94763.00
2023-12-09T02:18:17.236Z,94765.00
2023-12-09T02:19:17.268Z,94766.00
2023-12-09T02:20:17.222Z,94765.00
2023-12-09T02:21:17.240Z,94769.00
2023-12-09T02:22:17.284Z,94766.00
2023-12-09T02:23:17.257Z,94768.00
2023-12-09T02:24:17.379Z,94769.00
2023-12-09T02:25:17.377Z,94769.00
2023-12-09T02:26:17.428Z,94771.00
2023-12-09T02:27:17.552Z,94771.00
2023-12-09T02:28:17.474Z,94770.00
2023-12-09T02:29:17.556Z,94774.00
2023-12-09T02:30:17.618Z,94773.00
2023-12-09T02:31:17.607Z,94773.00
2023-12-09T02:32:17.668Z,94775.00
2023-12-09T02:33:17.941Z,94777.00
2023-12-09T02:34:17.836Z,94776.00
2023-12-09T02:35:17.795Z,94777.00
2023-12-09T02:36:17.887Z,94779.00
2023-12-09T02:37:17.855Z,94780.00
2023-12-09T02:38:17.919Z,94779.00
2023-12-09T02:39:17.966Z,94779.00
2023-12-09T02:40:17.990Z,94777.00
2023-12-09T02:41:18.035Z,94774.00
2023-12-09T02:42:18.080Z,94774.00
2023-12-09T02:43:18.110Z,94774.00
2023-12-09T02:44:18.122Z,94773.00
2023-12-09T02:45:18.211Z,94775.00
2023-12-09T02:46:18.235Z,94773.00
2023-12-09T02:47:18.287Z,94774.00
2023-12-09T02:48:18.468Z,94775.00
2023-12-09T02:49:18.413Z,94775.00
2023-12-09T02:50:18.381Z,94776.00
2023-12-09T02:51:18.657Z,94776.00
2023-12-09T02:52:18.605Z,94773.00
2023-12-09T02:53:18.619Z,94775.00
2023-12-09T02:54:18.595Z,94772.00
2023-12-09T02:55:18.608Z,94772.00
2023-12-09T02:56:18.613Z,94773.00
2023-12-09T02:57:18.713Z,94774.00
2023-12-09T02:58:18.718Z,94775.00
2023-12-09T02:59:18.783Z,94777.00
2023-12-09T03:00:18.843Z,94775.00
2023-12-09T03:01:18.870Z,94776.00
2023-12-09T03:02:18.852Z,94777.00
2023-12-09T03:03:19.033Z,94777.00
2023-12-09T03:04:19.018Z,94781.00
2023-12-09T03:05:19.063Z,94782.00
2023-12-09T03:06:19.109Z,94780.00
2023-12-09T03:07:19.090Z,94781.00
2023-12-09T03:08:19.101Z,94782.00
2023-12-09T03:09:19.298Z,94782.00
2023-12-09T03:10:19.238Z,94779.00
2023-12-09T03:11:19.241Z,94779.00
2023-12-09T03:12:19.311Z,94781.00
2023-12-09T03:13:19.349Z,94779.00
2023-12-09T03:14:19.357Z,94782.00
2023-12-09T03:15:19.470Z,94783.00
2023-12-09T03:16:19.402Z,94781.00
2023-12-09T03:17:19.451Z,94782.00
2023-12-09T03:18:19.711Z,94786.00
2023-12-09T03:19:19.604Z,94787.00
2023-12-09T03:20:19.599Z,94789.00
2023-12-09T03:21:19.824Z,94795.00
2023-12-09T03:22:19.706Z,94794.00
2023-12-09T03:23:19.757Z,94797.00
2023-12-09T03:24:19.811Z,94796.00
2023-12-09T03:25:19.848Z,94796.00
2023-12-09T03:26:19.854Z,94796.00
2023-12-09T03:27:20.016Z,94801.00
2023-12-09T03:28:20.008Z,94800.00
2023-12-09T03:29:20.061Z,94806.00
2023-12-09T03:30:20.151Z,94809.00
2023-12-09T03:31:20.065Z,94811.00
2023-12-09T03:32:20.197Z,94814.00
2023-12-09T03:33:20.245Z,94813.00
2023-12-09T03:34:20.314Z,94815.00
2023-12-09T03:35:20.271Z,94812.00
2023-12-09T03:36:20.336Z,94810.00
2023-12-09T03:37:20.371Z,94813.00
2023-12-09T03:38:20.389Z,94814.00
2023-12-09T03:39:20.471Z,94814.00
2023-12-09T03:40:20.490Z,94814.00
2023-12-09T03:41:23.142Z,94818.00
2023-12-09T03:42:20.609Z,94815.00
2023-12-09T03:43:20.538Z,94816.00
2023-12-09T03:44:20.590Z,94817.00
2023-12-09T03:45:20.555Z,94816.00
2023-12-09T03:46:20.545Z,94816.00
2023-12-09T03:47:28.543Z,94815.00
2023-12-09T03:48:21.739Z,94819.00
2023-12-09T03:49:20.620Z,94818.00
2023-12-09T03:50:20.507Z,94818.00
2023-12-09T03:51:20.576Z,94821.00
2023-12-09T03:52:20.537Z,94822.00
2023-12-09T03:53:20.753Z,94824.00
2023-12-09T03:54:20.605Z,94821.00
2023-12-09T03:55:20.546Z,94825.00
2023-12-09T03:56:20.547Z,94825.00
2023-12-09T03:57:20.629Z,94827.00
2023-12-09T03:58:20.589Z,94828.00
2023-12-09T03:59:20.559Z,94831.00
2023-12-09T04:00:20.589Z,94830.00
2023-12-09T04:01:20.672Z,94833.00
2023-12-09T04:02:20.643Z,94834.00
2023-12-09T04:03:20.878Z,94833.00
2023-12-09T04:04:20.813Z,94832.00
2023-12-09T04:05:20.848Z,94833.00
2023-12-09T04:06:20.902Z,94833.00
2023-12-09T04:07:20.931Z,94833.00
2023-12-09T04:08:20.945Z,94831.00
2023-12-09T04:09:21.008Z,94830.00
2023-12-09T04:10:21.081Z,94832.00
2023-12-09T04:11:21.085Z,94827.00
2023-12-09T04:12:21.155Z,94825.00
2023-12-09T04:13:21.279Z,94822.00
2023-12-09T04:14:21.242Z,94817.00
2023-12-09T04:15:21.312Z,94817.00
2023-12-09T04:16:21.365Z,94813.00
2023-12-09T04:17:21.399Z,94811.00
2023-12-09T04:18:21.663Z,94811.00
2023-12-09T04:19:21.757Z,94810.00
2023-12-09T04:20:21.696Z,94812.00
2023-12-09T04:21:21.661Z,94814.00
2023-12-09T04:22:21.685Z,94811.00
2023-12-09T04:23:21.709Z,94810.00
2023-12-09T04:24:21.834Z,94805.00
2023-12-09T04:25:21.818Z,94801.00
2023-12-09T04:26:21.870Z,94803.00
2023-12-09T04:27:21.947Z,94804.00
2023-12-09T04:28:22.001Z,94802.00
2023-12-09T04:29:22.066Z,94803.00
2023-12-09T04:30:22.109Z,94802.00
2023-12-09T04:31:29.345Z,94798.00
2023-12-09T04:32:29.710Z,94796.00
2023-12-09T04:33:29.301Z,94794.00
2023-12-09T04:34:29.338Z,94793.00
2023-12-09T04:35:29.313Z,94789.00
2023-12-09T04:36:29.346Z,94785.00
2023-12-09T04:37:29.332Z,94781.00
2023-12-09T04:38:29.337Z,94777.00
2023-12-09T04:39:29.349Z,94775.00
2023-12-09T04:40:29.305Z,94775.00
2023-12-09T04:41:29.369Z,94776.00
2023-12-09T04:42:29.789Z,94776.00
2023-12-09T04:43:29.381Z,94778.00
2023-12-09T04:44:29.363Z,94774.00
2023-12-09T04:45:29.338Z,94773.00
2023-12-09T04:46:29.350Z,94769.00
2023-12-09T04:47:29.315Z,94770.00
2023-12-09T04:48:29.569Z,94771.00
2023-12-09T04:49:29.506Z,94770.00
2023-12-09T04:50:29.325Z,94769.00
2023-12-09T04:51:29.417Z,94769.00
2023-12-09T04:52:29.571Z,94766.00
2023-12-09T04:53:29.340Z,94767.00
2023-12-09T04:54:29.376Z,94766.00
2023-12-09T04:55:29.366Z,94764.00
2023-12-09T04:56:29.541Z,94765.00
2023-12-09T04:57:29.517Z,94765.00
2023-12-09T04:58:29.580Z,94760.00
2023-12-09T04:59:29.601Z,94763.00
2023-12-09T05:00:29.745Z,94763.00
2023-12-09T05:01:29.813Z,94761.00
2023-12-09T05:02:29.940Z,94761.00
2023-12-09T05:03:29.919Z,94764.00
2023-12-09T05:04:29.960Z,94764.00
2023-12-09T05:05:30.030Z,94763.00
2023-12-09T05:06:30.036Z,94763.00
2023-12-09T05:07:30.140Z,94764.00
2023-12-09T05:08:30.208Z,94766.00
2023-12-09T05:09:30.267Z,94771.00
2023-12-09T05:10:30.331Z,94776.00
2023-12-09T05:11:30.363Z,94777.00
2023-12-09T05:12:30.788Z,94780.00
2023-12-09T05:13:30.504Z,94776.00
2023-12-09T05:14:30.528Z,94775.00
2023-12-09T05:15:33.287Z,94771.00
2023-12-09T05:16:30.632Z,94770.00
2023-12-09T05:17:30.665Z,94767.00
2023-12-09T05:18:30.697Z,94764.00
2023-12-09T05:19:30.716Z,94762.00
2023-12-09T05:20:30.627Z,94764.00
2023-12-09T05:21:35.576Z,94764.00
2023-12-09T05:22:31.663Z,94763.00
2023-12-09T05:23:30.642Z,94766.00
2023-12-09T05:24:30.702Z,94767.00
2023-12-09T05:25:30.618Z,94768.00
2023-12-09T05:26:30.675Z,94768.00
2023-12-09T05:27:30.695Z,94768.00
2023-12-09T05:28:30.648Z,94767.00
2023-12-09T05:29:30.635Z,94764.00
2023-12-09T05:30:30.627Z,94766.00
2023-12-09T05:31:30.679Z,94767.00
2023-12-09T05:32:30.748Z,94768.00
2023-12-09T05:33:30.949Z,94771.00
2023-12-09T05:34:30.988Z,94770.00
2023-12-09T05:35:30.937Z,94768.00
2023-12-09T05:36:31.056Z,94771.00
2023-12-09T05:37:31.122Z,94771.00
2023-12-09T05:38:31.092Z,94768.00
2023-12-09T05:39:31.269Z,94769.00
2023-12-09T05:40:32.620Z,94767.00
2023-12-09T05:41:31.241Z,94767.00
2023-12-09T05:42:31.486Z,94767.00
2023-12-09T05:43:31.308Z,94768.00
2023-12-09T05:44:31.245Z,94769.00
2023-12-09T05:45:31.313Z,94770.00
2023-12-09T05:46:31.218Z,94770.00
2023-12-09T05:47:31.345Z,94770.00
2023-12-09T05:48:31.322Z,94771.00
2023-12-09T05:49:31.332Z,94772.00
2023-12-09T05:50:31.281Z,94773.00
2023-12-09T05:51:31.341Z,94776.00
2023-12-09T05:52:31.249Z,94780.00
2023-12-09T05:53:31.264Z,94779.00
2023-12-09T05:54:31.302Z,94779.00
2023-12-09T05:55:31.258Z,94780.00
2023-12-09T05:56:31.275Z,94779.00
2023-12-09T05:57:31.306Z,94779.00
2023-12-09T05:58:31.290Z,94779.00
2023-12-09T05:59:31.292Z,94781.00
2023-12-09T06:00:31.525Z,94779.00
2023-12-09T06:01:31.288Z,94776.00
2023-12-09T06:02:31.269Z,94776.00
2023-12-09T06:03:31.281Z,94772.00
2023-12-09T06:04:31.410Z,94771.00
2023-12-09T06:05:31.308Z,94773.00
2023-12-09T06:06:31.356Z,94778.00
2023-12-09T06:07:31.302Z,94783.00
2023-12-09T06:08:31.265Z,94787.00
2023-12-09T06:09:31.301Z,94791.00
2023-12-09T06:10:31.263Z,94793.00
2023-12-09T06:11:31.266Z,94789.00
2023-12-09T06:12:31.436Z,94789.00
2023-12-09T06:13:31.281Z,94786.00
2023-12-09T06:14:31.289Z,94788.00
2023-12-09T06:15:31.411Z,94795.00
2023-12-09T06:16:31.412Z,94796.00
2023-12-09T06:17:31.483Z,94799.00
2023-12-09T06:18:31.619Z,94800.00
2023-12-09T06:19:31.622Z,94798.00
2023-12-09T06:20:31.686Z,94797.00
2023-12-09T06:21:31.861Z,94796.00
2023-12-09T06:22:31.808Z,94796.00
2023-12-09T06:23:31.863Z,94796.00
2023-12-09T06:24:32.005Z,94795.00
2023-12-09T06:25:32.045Z,94795.00
2023-12-09T06:26:32.103Z,94795.00
2023-12-09T06:27:32.201Z,94797.00
2023-12-09T06:28:32.217Z,94795.00
2023-12-09T06:29:32.322Z,94797.00
2023-12-09T06:30:32.432Z,94794.00
2023-12-09T06:31:32.430Z,94793.00
2023-12-09T06:32:32.514Z,94793.00
2023-12-09T06:33:32.732Z,94790.00
2023-12-09T06:34:32.785Z,94789.00
2023-12-09T06:35:32.717Z,94789.00
2023-12-09T06:36:32.810Z,94788.00
2023-12-09T06:37:32.872Z,94788.00
2023-12-09T06:38:32.891Z,94791.00
2023-12-09T06:39:33.028Z,94791.00
2023-12-09T06:40:33.054Z,94792.00
2023-12-09T06:41:33.106Z,94797.00
2023-12-09T06:42:33.233Z,94800.00
2023-12-09T06:43:33.287Z,94799.00
2023-12-09T06:44:33.347Z,94798.00
2023-12-09T06:45:33.438Z,94797.00
2023-12-09T06:46:33.459Z,94795.00
2023-12-09T06:47:33.667Z,94798.00
2023-12-09T06:48:33.799Z,94798.00
2023-12-09T06:49:33.761Z,94798.00
2023-12-09T06:50:33.761Z,94799.00
2023-12-09T06:51:34.057Z,94797.00
2023-12-09T06:52:33.930Z,94802.00
2023-12-09T06:53:33.969Z,94800.00
2023-12-09T06:54:34.072Z,94802.00
2023-12-09T06:55:34.145Z,94802.00
2023-12-09T06:56:34.188Z,94801.00
2023-12-09T06:57:34.277Z,94802.00
2023-12-09T06:58:34.323Z,94802.00
2023-12-09T06:59:34.389Z,94806.00
2023-12-09T07:00:34.591Z,94808.00
2023-12-09T07:01:34.581Z,94807.00
2023-12-09T07:02:44.562Z,94807.00
2023-12-09T07:03:35.674Z,94806.00
2023-12-09T07:04:34.841Z,94805.00
2023-12-09T07:05:34.677Z,94807.00
2023-12-09T07:06:34.782Z,94807.00
2023-12-09T07:07:35.488Z,94811.00
2023-12-09T07:08:34.667Z,94813.00
2023-12-09T07:09:34.636Z,94818.00
2023-12-09T07:10:34.704Z,94816.00
2023-12-09T07:11:34.756Z,94822.00
2023-12-09T07:12:34.854Z,94825.00
2023-12-09T07:13:34.929Z,94829.00
2023-12-09T07:14:34.964Z,94831.00
2023-12-09T07:15:35.095Z,94833.00
2023-12-09T07:16:35.089Z,94834.00
2023-12-09T07:17:35.307Z,94835.00
2023-12-09T07:18:35.340Z,94837.00
2023-12-09T07:19:35.405Z,94839.00
2023-12-09T07:20:35.374Z,94841.00
2023-12-09T07:21:35.534Z,94844.00
2023-12-09T07:22:35.495Z,94840.00
2023-12-09T07:23:35.597Z,94840.00
2023-12-09T07:24:35.712Z,94839.00
2023-12-09T07:25:35.741Z,94843.00
2023-12-09T07:26:35.818Z,94844.00
2023-12-09T07:27:35.905Z,94842.00
2023-12-09T07:28:35.938Z,94840.00
2023-12-09T07:29:35.957Z,94836.00
2023-12-09T07:30:36.126Z,94834.00
2023-12-09T07:31:36.110Z,94836.00
2023-12-09T07:32:36.228Z,94838.00
2023-12-09T07:33:36.468Z,94841.00
2023-12-09T07:34:36.468Z,94838.00
2023-12-09T07:35:36.400Z,94840.00
2023-12-09T07:36:36.555Z,94836.00
2023-12-09T07:37:36.509Z,94834.00
2023-12-09T07:38:36.598Z,94833.00
2023-12-09T07:39:36.737Z,94834.00
2023-12-09T07:40:36.734Z,94839.00
2023-12-09T07:41:36.792Z,94840.00
2023-12-09T07:42:36.887Z,94838.00
2023-12-09T07:43:40.169Z,94841.00
2023-12-09T07:44:36.921Z,94843.00
2023-12-09T07:45:37.082Z,94844.00
2023-12-09T07:46:36.925Z,94846.00
2023-12-09T07:47:36.961Z,94846.00
2023-12-09T07:48:37.060Z,94841.00
2023-12-09T07:49:37.038Z,94837.00
2023-12-09T07:50:36.920Z,94837.00
2023-12-09T07:51:36.983Z,94834.00
2023-12-09T07:52:36.969Z,94831.00
2023-12-09T07:53:36.973Z,94829.00
2023-12-09T07:54:36.958Z,94826.00
2023-12-09T07:55:36.956Z,94825.00
2023-12-09T07:56:37.024Z,94824.00
2023-12-09T07:57:37.055Z,94827.00
2023-12-09T07:58:36.969Z,94824.00
2023-12-09T07:59:36.968Z,94827.00
2023-12-09T08:00:36.980Z,94828.00
2023-12-09T08:01:36.980Z,94831.00
2023-12-09T08:02:36.991Z,94834.00
2023-12-09T08:03:36.988Z,94832.00
2023-12-09T08:04:36.995Z,94829.00
2023-12-09T08:05:37.084Z,94827.00
2023-12-09T08:06:37.150Z,94827.00
2023-12-09T08:07:37.122Z,94828.00
2023-12-09T08:08:37.162Z,94833.00
2023-12-09T08:09:37.319Z,94832.00
2023-12-09T08:10:37.309Z,94831.00
2023-12-09T08:11:37.428Z,94831.00
2023-12-09T08:12:37.560Z,94833.00
2023-12-09T08:13:37.523Z,94834.00
2023-12-09T08:14:37.590Z,94833.00
2023-12-09T08:15:37.745Z,94829.00
2023-12-09T08:16:37.758Z,94828.00
2023-12-09T08:17:37.805Z,94825.00
2023-12-09T08:18:38.075Z,94829.00
2023-12-09T08:19:38.126Z,94831.00
2023-12-09T08:20:37.999Z,94830.00
2023-12-09T08:21:38.161Z,94827.00
2023-12-09T08:22:38.144Z,94823.00
2023-12-09T08:23:38.259Z,94822.00
2023-12-09T08:24:38.323Z,94825.00
2023-12-09T08:25:38.384Z,94826.00
2023-12-09T08:26:38.677Z,94826.00
2023-12-09T08:27:38.556Z,94823.00
2023-12-09T08:28:38.589Z,94818.00
2023-12-09T08:29:38.647Z,94815.00
2023-12-09T08:30:38.773Z,94812.00
2023-12-09T08:31:38.783Z,94813.00
2023-12-09T08:32:38.841Z,94816.00
2023-12-09T08:33:39.022Z,94816.00
2023-12-09T08:34:39.062Z,94816.00
2023-12-09T08:35:41.768Z,94813.00
2023-12-09T08:36:39.061Z,94806.00
2023-12-09T08:37:39.029Z,94805.00
2023-12-09T08:38:39.087Z,94807.00
2023-12-09T08:39:39.074Z,94810.00
2023-12-09T08:40:39.024Z,94813.00
2023-12-09T08:41:39.044Z,94810.00
2023-12-09T08:42:39.092Z,94811.00
2023-12-09T08:43:39.066Z,94811.00
2023-12-09T08:44:39.097Z,94810.00
2023-12-09T08:45:39.088Z,94811.00
2023-12-09T08:46:39.032Z,94809.00
2023-12-09T08:47:41.078Z,94810.00
2023-12-09T08:48:39.209Z,94814.00
2023-12-09T08:49:39.114Z,94814.00
2023-12-09T08:50:39.072Z,94816.00
2023-12-09T08:51:39.131Z,94815.00
2023-12-09T08:52:39.070Z,94811.00
2023-12-09T08:53:39.076Z,94815.00
2023-12-09T08:54:39.092Z,94818.00
2023-12-09T08:55:39.057Z,94821.00
2023-12-09T08:56:39.046Z,94823.00
2023-12-09T08:57:39.073Z,94822.00
2023-12-09T08:58:39.033Z,94816.00
2023-12-09T08:59:39.035Z,94816.00
2023-12-09T09:00:39.196Z,94818.00
2023-12-09T09:01:39.133Z,94821.00
2023-12-09T09:02:39.065Z,94827.00
2023-12-09T09:03:39.139Z,94831.00
2023-12-09T09:04:39.157Z,94826.00
2023-12-09T09:05:39.118Z,94827.00
2023-12-09T09:06:39.093Z,94825.00
2023-12-09T09:07:39.056Z,94825.00
2023-12-09T09:08:39.067Z,94826.00
2023-12-09T09:09:39.197Z,94822.00
2023-12-09T09:10:39.082Z,94819.00
2023-12-09T09:11:39.168Z,94819.00
2023-12-09T09:12:39.192Z,94818.00
2023-12-09T09:13:39.065Z,94818.00
2023-12-09T09:14:39.087Z,94819.00
2023-12-09T09:15:39.157Z,94822.00
2023-12-09T09:16:39.068Z,94821.00
2023-12-09T09:17:39.168Z,94822.00
2023-12-09T09:18:39.317Z,94826.00
2023-12-09T09:19:39.307Z,94824.00
2023-12-09T09:20:39.332Z,94828.00
2023-12-09T09:21:39.458Z,94832.00
2023-12-09T09:22:39.475Z,94829.00
2023-12-09T09:23:39.442Z,94832.00
2023-12-09T09:24:39.575Z,94831.00
2023-12-09T09:25:39.557Z,94825.00
2023-12-09T09:26:39.641Z,94821.00
2023-12-09T09:27:39.793Z,94821.00
2023-12-09T09:28:39.761Z,94818.00
2023-12-09T09:29:39.824Z,94818.00
2023-12-09T09:30:39.934Z,94820.00
2023-12-09T09:31:39.974Z,94822.00
2023-12-09T09:32:40.018Z,94819.00
2023-12-09T09:33:40.144Z,94818.00
2023-12-09T09:34:40.188Z,94813.00
2023-12-09T09:35:40.223Z,94807.00
2023-12-09T09:36:40.263Z,94801.00
2023-12-09T09:37:40.334Z,94797.00
2023-12-09T09:38:40.324Z,94794.00
2023-12-09T09:39:40.479Z,94793.00
2023-12-09T09:40:40.486Z,94793.00
2023-12-09T09:41:40.518Z,94794.00
2023-12-09T09:42:40.633Z,94788.00
2023-12-09T09:43:40.667Z,94786.00
2023-12-09T09:44:40.727Z,94783.00
2023-12-09T09:45:40.799Z,94779.00
2023-12-09T09:46:40.812Z,94778.00
2023-12-09T09:47:41.178Z,94779.00
2023-12-09T09:48:41.036Z,94777.00
2023-12-09T09:49:41.053Z,94777.00
2023-12-09T09:50:41.089Z,94779.00
2023-12-09T09:51:41.180Z,94775.00
2023-12-09T09:52:41.177Z,94773.00
2023-12-09T09:53:41.214Z,94772.00
2023-12-09T09:54:41.342Z,94770.00
2023-12-09T09:55:41.480Z,94768.00
2023-12-09T09:56:41.418Z,94770.00
2023-12-09T09:57:41.497Z,94769.00
2023-12-09T09:58:41.539Z,94768.00
2023-12-09T09:59:41.615Z,94769.00
2023-12-09T10:00:41.812Z,94765.00
2023-12-09T10:01:42.595Z,94762.00
2023-12-09T10:02:41.769Z,94761.00
2023-12-09T10:03:41.868Z,94761.00
2023-12-09T10:04:41.981Z,94757.00
2023-12-09T10:05:41.886Z,94753.00
2023-12-09T10:06:41.987Z,94752.00
2023-12-09T10:07:42.156Z,94750.00
2023-12-09T10:08:42.060Z,94749.00
2023-12-09T10:09:42.252Z,94746.00
2023-12-09T10:10:43.045Z,94748.00
2023-12-09T10:11:42.227Z,94747.00
2023-12-09T10:12:42.335Z,94744.00
2023-12-09T10:13:42.349Z,94745.00
2023-12-09T10:14:42.417Z,94743.00
2023-12-09T10:15:42.492Z,94743.00
2023-12-09T10:16:42.537Z,94740.00
2023-12-09T10:17:42.782Z,94742.00
2023-12-09T10:18:42.784Z,94739.00
2023-12-09T10:19:42.782Z,94736.00
2023-12-09T10:20:42.761Z,94735.00
2023-12-09T10:21:42.827Z,94732.00
2023-12-09T10:22:42.860Z,94729.00
2023-12-09T10:23:42.926Z,94729.00
2023-12-09T10:24:50.130Z,94728.00
2023-12-09T10:25:43.967Z,94729.00
2023-12-09T10:26:42.977Z,94726.00
2023-12-09T10:27:43.082Z,94722.00
2023-12-09T10:28:43.034Z,94713.00
2023-12-09T10:29:46.574Z,94706.00
2023-12-09T10:30:43.062Z,94700.00
2023-12-09T10:31:42.988Z,94690.00
2023-12-09T10:32:43.044Z,94686.00
2023-12-09T10:33:43.090Z,94680.00
2023-12-09T10:34:43.091Z,94676.00
2023-12-09T10:35:43.038Z,94671.00
2023-12-09T10:36:42.998Z,94669.00
2023-12-09T10:37:42.999Z,94668.00
2023-12-09T10:38:42.984Z,94668.00
2023-12-09T10:39:43.019Z,94670.00
2023-12-09T10:40:43.022Z,94673.00
2023-12-09T10:41:43.011Z,94673.00
2023-12-09T10:42:43.025Z,94669.00
2023-12-09T10:43:43.017Z,94662.00
2023-12-09T10:44:43.019Z,94657.00
2023-12-09T10:45:43.059Z,94655.00
2023-12-09T10:46:42.986Z,94650.00
2023-12-09T10:47:43.115Z,94644.00
2023-12-09T10:48:43.196Z,94646.00
2023-12-09T10:49:43.375Z,94644.00
2023-12-09T10:50:43.224Z,94647.00
2023-12-09T10:51:43.305Z,94648.00
2023-12-09T10:52:43.324Z,94650.00
2023-12-09T10:53:43.379Z,94649.00
2023-12-09T10:54:43.532Z,94649.00
2023-12-09T10:55:43.517Z,94649.00
2023-12-09T10:56:43.556Z,94645.00
2023-12-09T10:57:43.670Z,94642.00
2023-12-09T10:58:43.727Z,94638.00
2023-12-09T10:59:43.756Z,94638.00
2023-12-09T11:00:43.911Z,94635.00
2023-12-09T11:01:43.865Z,94631.00
2023-12-09T11:02:43.962Z,94630.00
2023-12-09T11:03:44.152Z,94626.00
2023-12-09T11:04:44.077Z,94624.00
2023-12-09T11:05:44.168Z,94624.00
2023-12-09T11:06:44.261Z,94623.00
2023-12-09T11:07:44.215Z,94626.00
2023-12-09T11:08:44.260Z,94626.00
2023-12-09T11:09:44.406Z,94627.00
2023-12-09T11:10:44.448Z,94627.00
2023-12-09T11:11:44.486Z,94624.00
2023-12-09T11:12:44.597Z,94622.00
2023-12-09T11:13:44.604Z,94617.00
2023-12-09T11:14:44.713Z,94613.00
2023-12-09T11:15:44.856Z,94610.00
2023-12-09T11:16:44.823Z,94610.00
2023-12-09T11:17:44.923Z,94610.00
2023-12-09T11:18:45.034Z,94612.00
2023-12-09T11:19:45.046Z,94617.00
2023-12-09T11:20:44.997Z,94618.00
2023-12-09T11:21:45.126Z,94618.00
2023-12-09T11:22:45.120Z,94616.00
2023-12-09T11:23:45.205Z,94614.00
2023-12-09T11:24:45.270Z,94614.00
2023-12-09T11:25:45.399Z,94613.00
2023-12-09T11:26:45.414Z,94616.00
2023-12-09T11:27:45.470Z,94618.00
2023-12-09T11:28:45.533Z,94615.00
2023-12-09T11:29:45.578Z,94616.00
2023-12-09T11:30:45.834Z,94618.00
2023-12-09T11:31:45.658Z,94619.00
2023-12-09T11:32:45.801Z,94616.00
2023-12-09T11:33:45.960Z,94617.00
2023-12-09T11:34:45.866Z,94615.00
2023-12-09T11:35:45.943Z,94615.00
2023-12-09T11:36:46.056Z,94617.00
2023-12-09T11:37:46.053Z,94615.00
2023-12-09T11:38:46.121Z,94615.00
2023-12-09T11:39:46.164Z,94611.00
2023-12-09T11:40:46.237Z,94609.00
2023-12-09T11:41:46.309Z,94612.00
2023-12-09T11:42:46.360Z,94612.00
2023-12-09T11:43:46.424Z,94610.00
2023-12-09T11:44:46.454Z,94607.00
2023-12-09T11:45:46.542Z,94603.00